createdAt,value
2018-10-02T00:00:12.293Z,28.60
2018-10-02T00:01:43.664Z,27.00
2018-10-02T00:03:15.137Z,29.50
2018-10-02T00:04:46.718Z,28.30
2018-10-02T00:06:18.285Z,29.70
2018-10-02T00:07:49.864Z,31.40
2018-10-02T00:09:21.432Z,29.40
2018-10-02T00:10:53.308Z,23.50
2018-10-02T00:12:24.579Z,27.60
2018-10-02T00:13:56.154Z,26.70
2018-10-02T00:15:27.727Z,28.30
2018-10-02T00:16:59.300Z,30.50
2018-10-02T00:18:30.877Z,30.40
2018-10-02T00:20:02.548Z,28.70
2018-10-02T00:21:34.022Z,27.90
2018-10-02T00:23:05.595Z,30.20
2018-10-02T00:24:37.198Z,32.10
2018-10-02T00:26:08.742Z,33.30
2018-10-02T00:27:40.608Z,33.40
2018-10-02T00:29:11.889Z,34.60
2018-10-02T00:30:43.465Z,38.50
2018-10-02T00:32:15.272Z,38.10
2018-10-02T00:33:47.133Z,37.10
2018-10-02T00:35:18.184Z,34.40
2018-10-02T00:36:50.061Z,41.30
2018-10-02T00:38:21.431Z,39.60
2018-10-02T00:39:52.904Z,40.50
2018-10-02T00:41:24.480Z,40.30
2018-10-02T00:42:56.050Z,39.60
2018-10-02T00:44:27.624Z,39.00
2018-10-02T00:45:59.196Z,36.60
2018-10-02T00:47:30.769Z,42.50
2018-10-02T00:49:02.346Z,37.50
2018-10-02T00:50:33.917Z,40.80
2018-10-02T00:52:05.489Z,30.90
2018-10-02T00:53:37.064Z,35.90
2018-10-02T00:55:08.635Z,36.40
2018-10-02T00:56:40.408Z,36.70
2018-10-02T00:58:11.782Z,38.20
2018-10-02T00:59:43.658Z,34.20
2018-10-02T01:01:14.927Z,35.60
2018-10-02T01:02:46.507Z,39.20
2018-10-02T01:04:18.073Z,36.10
2018-10-02T01:05:49.647Z,34.10
2018-10-02T01:07:21.422Z,34.60
2018-10-02T01:08:52.995Z,35.40
2018-10-02T01:10:24.365Z,38.20
2018-10-02T01:11:55.939Z,34.60
2018-10-02T01:13:27.511Z,40.70
2018-10-02T01:14:59.185Z,41.10
2018-10-02T01:16:30.659Z,45.90
2018-10-02T01:18:02.231Z,47.30
2018-10-02T01:19:33.805Z,43.70
2018-10-02T01:21:05.677Z,34.50
2018-10-02T01:22:36.949Z,32.40
2018-10-02T01:24:08.523Z,37.70
2018-10-02T01:27:11.669Z,53.60
2018-10-02T01:28:43.243Z,70.60
2018-10-02T01:30:14.815Z,61.10
2018-10-02T01:31:46.388Z,49.30
2018-10-02T01:33:18.080Z,52.30
2018-10-02T01:36:21.107Z,41.90
2018-10-02T01:37:52.681Z,34.80
2018-10-02T01:39:24.253Z,38.00
2018-10-02T01:40:55.826Z,38.30
2018-10-02T01:42:27.399Z,55.80
2018-10-02T01:43:58.971Z,58.00
2018-10-02T01:45:30.545Z,49.60
2018-10-02T01:47:02.118Z,48.80
2018-10-02T01:48:33.691Z,32.40
2018-10-02T01:50:05.263Z,36.30
2018-10-02T01:51:37.237Z,35.90
2018-10-02T01:53:08.417Z,35.30
2018-10-02T01:54:39.985Z,37.80
2018-10-02T01:56:11.562Z,42.20
2018-10-02T01:57:43.128Z,45.10
2018-10-02T01:59:14.704Z,44.50
2018-10-02T02:00:46.282Z,42.00
2018-10-02T02:02:17.848Z,56.10
2018-10-02T02:03:49.421Z,57.30
2018-10-02T02:05:20.997Z,65.70
2018-10-02T02:06:52.798Z,39.40
2018-10-02T02:08:24.141Z,47.70
2018-10-02T02:09:55.813Z,43.80
2018-10-02T02:11:27.289Z,62.00
2018-10-02T02:12:58.871Z,63.30
2018-10-02T02:14:30.449Z,92.80
2018-10-02T02:16:02.005Z,79.80
2018-10-02T02:17:33.580Z,71.00
2018-10-02T02:19:05.175Z,53.90
2018-10-02T02:20:36.727Z,54.40
2018-10-02T02:22:08.696Z,53.50
2018-10-02T02:23:39.882Z,69.50
2018-10-02T02:25:11.442Z,74.80
2018-10-02T02:26:43.016Z,86.90
2018-10-02T02:28:14.838Z,82.40
2018-10-02T02:29:46.160Z,87.70
2018-10-02T02:31:17.736Z,64.10
2018-10-02T02:32:49.306Z,61.90
2018-10-02T02:34:20.879Z,63.20
2018-10-02T02:35:52.481Z,72.60
2018-10-02T02:37:24.027Z,78.70
2018-10-02T02:40:27.233Z,80.10
2018-10-02T02:41:58.753Z,93.00
2018-10-02T02:43:30.327Z,82.00
2018-10-02T02:45:01.889Z,94.00
2018-10-02T02:46:33.578Z,85.50
2018-10-02T02:48:05.034Z,89.20
2018-10-02T02:49:36.613Z,84.30
2018-10-02T02:51:08.184Z,82.30
2018-10-02T02:52:40.079Z,80.70
2018-10-02T02:54:11.363Z,81.70
2018-10-02T02:55:42.901Z,68.10
2018-10-02T02:57:14.474Z,71.90
2018-10-02T02:58:46.144Z,67.40
2018-10-02T03:00:17.618Z,61.20
2018-10-02T03:01:49.191Z,66.20
2018-10-02T03:03:20.785Z,67.90
2018-10-02T03:04:52.738Z,70.80
2018-10-02T03:06:23.907Z,75.40
2018-10-02T03:07:55.480Z,75.60
2018-10-02T03:09:27.054Z,64.50
2018-10-02T03:10:58.627Z,66.80
2018-10-02T03:12:30.198Z,71.50
2018-10-02T03:14:01.773Z,66.20
2018-10-02T03:15:33.373Z,74.60
2018-10-02T03:17:04.916Z,76.50
2018-10-02T03:18:36.488Z,87.60
2018-10-02T03:20:08.062Z,80.60
2018-10-02T03:21:39.685Z,84.70
2018-10-02T03:23:11.606Z,83.60
2018-10-02T03:24:42.796Z,82.20
2018-10-02T03:26:14.352Z,86.60
2018-10-02T03:29:17.596Z,88.70
2018-10-02T03:30:49.071Z,89.30
2018-10-02T03:32:20.641Z,74.90
2018-10-02T03:33:52.230Z,81.50
2018-10-02T03:35:23.786Z,76.60
2018-10-02T03:36:55.360Z,79.60
2018-10-02T03:38:26.932Z,62.20
2018-10-02T03:39:58.503Z,70.90
2018-10-02T03:41:30.195Z,76.20
2018-10-02T03:43:01.664Z,71.40
2018-10-02T03:44:33.245Z,75.00
2018-10-02T03:46:04.802Z,84.00
2018-10-02T03:47:36.366Z,75.40
2018-10-02T03:49:07.940Z,71.80
2018-10-02T03:50:39.538Z,79.40
2018-10-02T03:52:11.110Z,64.80
2018-10-02T03:53:42.963Z,72.80
2018-10-02T03:55:14.229Z,72.30
2018-10-02T03:56:45.801Z,82.00
2018-10-02T03:58:17.428Z,75.00
2018-10-02T03:59:49.168Z,67.40
2018-10-02T04:01:20.521Z,69.40
2018-10-02T04:04:24.271Z,65.20
2018-10-02T04:05:55.346Z,72.50
2018-10-02T04:07:26.819Z,68.70
2018-10-02T04:08:58.382Z,77.40
2018-10-02T04:10:30.547Z,74.40
2018-10-02T04:12:01.527Z,82.40
2018-10-02T04:13:33.126Z,89.60
2018-10-02T04:15:04.672Z,88.60
2018-10-02T04:16:36.246Z,87.80
2018-10-02T04:18:08.169Z,98.50
2018-10-02T04:19:39.693Z,89.90
2018-10-02T04:21:10.962Z,93.90
2018-10-02T04:22:42.539Z,82.80
2018-10-02T04:24:14.108Z,68.70
2018-10-02T04:25:45.680Z,73.30
2018-10-02T04:27:17.257Z,90.70
2018-10-02T04:28:48.835Z,86.50
2018-10-02T04:30:20.499Z,93.70
2018-10-02T04:31:51.972Z,82.00
2018-10-02T04:33:23.543Z,79.20
2018-10-02T04:34:55.132Z,81.60
2018-10-02T04:36:26.890Z,98.20
2018-10-02T04:37:58.261Z,116.60
2018-10-02T04:39:29.866Z,111.00
2018-10-02T04:41:01.405Z,106.30
2018-10-02T04:42:32.995Z,116.50
2018-10-02T04:44:04.550Z,116.20
2018-10-02T04:45:36.123Z,105.90
2018-10-02T04:47:07.706Z,103.20
2018-10-02T04:48:39.267Z,87.50
2018-10-02T04:50:10.840Z,92.20
2018-10-02T04:53:13.986Z,121.10
2018-10-02T04:54:45.655Z,148.70
2018-10-02T04:56:17.177Z,160.10
2018-10-02T04:57:48.704Z,141.00
2018-10-02T04:59:20.275Z,132.20
2018-10-02T05:02:23.438Z,97.60
2018-10-02T05:03:54.987Z,93.00
2018-10-02T05:05:26.584Z,109.90
2018-10-02T05:06:58.132Z,140.10
2018-10-02T05:08:29.860Z,137.10
2018-10-02T05:10:01.280Z,150.90
2018-10-02T05:11:32.853Z,142.20
2018-10-02T05:13:04.427Z,90.30
2018-10-02T05:14:36.093Z,133.20
2018-10-02T05:16:07.565Z,161.90
2018-10-02T05:17:39.138Z,140.60
2018-10-02T05:19:10.712Z,151.00
2018-10-02T05:20:42.353Z,147.90
2018-10-02T05:22:13.854Z,82.10
2018-10-02T05:23:45.477Z,88.30
2018-10-02T05:25:16.999Z,86.00
2018-10-02T05:26:48.622Z,94.10
2018-10-02T05:28:20.160Z,107.30
2018-10-02T05:29:51.737Z,102.40
2018-10-02T05:31:23.286Z,87.90
2018-10-02T05:32:55.142Z,83.10
2018-10-02T05:34:26.431Z,100.20
2018-10-02T05:35:58.004Z,98.60
2018-10-02T05:37:29.575Z,101.80
2018-10-02T05:39:01.147Z,92.20
2018-10-02T05:40:32.730Z,92.90
2018-10-02T05:42:04.290Z,94.20
2018-10-02T05:43:35.863Z,102.90
2018-10-02T05:45:07.441Z,136.10
2018-10-02T05:46:39.029Z,142.00
2018-10-02T05:48:10.595Z,127.50
2018-10-02T05:49:42.680Z,147.30
2018-10-02T05:51:13.823Z,133.20
2018-10-02T05:52:45.293Z,145.80
2018-10-02T05:54:16.864Z,124.30
2018-10-02T05:55:48.443Z,109.10
2018-10-02T05:57:20.109Z,130.30
2018-10-02T06:00:23.152Z,144.20
2018-10-02T06:01:54.729Z,155.30
2018-10-02T06:03:26.421Z,156.60
2018-10-02T06:04:57.867Z,160.30
2018-10-02T06:06:29.439Z,144.30
2018-10-02T06:08:01.017Z,119.00
2018-10-02T06:09:32.704Z,129.80
2018-10-02T06:11:04.152Z,132.50
2018-10-02T06:12:35.730Z,127.00
2018-10-02T06:14:07.295Z,116.00
2018-10-02T06:15:38.866Z,104.20
2018-10-02T06:17:10.445Z,109.60
2018-10-02T06:18:42.073Z,121.60
2018-10-02T06:20:13.582Z,119.30
2018-10-02T06:21:45.154Z,120.00
2018-10-02T06:23:16.729Z,106.90
2018-10-02T06:24:48.456Z,104.00
2018-10-02T06:26:19.867Z,100.00
2018-10-02T06:27:51.840Z,88.50
2018-10-02T06:29:23.022Z,110.10
2018-10-02T06:30:54.613Z,116.30
2018-10-02T06:32:26.155Z,112.90
2018-10-02T06:33:57.826Z,125.70
2018-10-02T06:35:29.300Z,117.40
2018-10-02T06:37:00.873Z,117.30
2018-10-02T06:38:32.570Z,106.60
2018-10-02T06:40:04.014Z,100.00
2018-10-02T06:41:35.603Z,103.20
2018-10-02T06:43:07.158Z,112.80
2018-10-02T06:44:38.790Z,109.50
2018-10-02T06:46:10.406Z,96.30
2018-10-02T06:47:42.381Z,100.50
2018-10-02T06:49:13.450Z,93.10
2018-10-02T06:50:45.035Z,77.80
2018-10-02T06:52:16.746Z,90.30
2018-10-02T06:53:48.165Z,87.70
2018-10-02T06:55:19.735Z,90.20
2018-10-02T06:56:51.399Z,91.10
2018-10-02T06:58:23.180Z,97.80
2018-10-02T06:59:54.455Z,95.90
2018-10-02T07:01:26.024Z,96.80
2018-10-02T07:02:57.651Z,98.20
2018-10-02T07:04:29.429Z,91.00
2018-10-02T07:06:00.743Z,100.30
2018-10-02T07:07:32.312Z,93.40
2018-10-02T07:09:03.925Z,105.40
2018-10-02T07:10:35.457Z,93.40
2018-10-02T07:12:07.028Z,102.20
2018-10-02T07:13:38.602Z,114.00
2018-10-02T07:15:10.257Z,120.40
2018-10-02T07:16:41.747Z,113.10
2018-10-02T07:18:13.318Z,119.90
2018-10-02T07:19:44.895Z,116.60
2018-10-02T07:21:16.461Z,116.10
2018-10-02T07:22:48.134Z,107.40
2018-10-02T07:24:19.606Z,96.20
2018-10-02T07:25:51.215Z,104.00
2018-10-02T07:27:22.972Z,82.80
2018-10-02T07:30:26.197Z,86.60
2018-10-02T07:31:57.467Z,81.10
2018-10-02T07:33:29.043Z,93.50
2018-10-02T07:35:00.611Z,78.30
2018-10-02T07:36:32.201Z,82.30
2018-10-02T07:38:03.756Z,80.70
2018-10-02T07:39:35.327Z,88.40
2018-10-02T07:41:06.904Z,105.90
2018-10-02T07:42:38.593Z,106.80
2018-10-02T07:44:10.045Z,117.90
2018-10-02T07:45:41.620Z,135.20
2018-10-02T07:47:13.223Z,106.20
2018-10-02T07:48:44.767Z,109.40
2018-10-02T07:50:16.335Z,105.10
2018-10-02T07:51:47.905Z,102.50
2018-10-02T07:53:19.478Z,90.00
2018-10-02T07:54:51.085Z,83.40
2018-10-02T07:56:22.639Z,85.20
2018-10-02T07:57:54.194Z,76.80
2018-10-02T07:59:25.798Z,106.50
2018-10-02T08:00:57.739Z,91.10
2018-10-02T08:02:28.973Z,99.50
2018-10-02T08:04:00.483Z,86.80
2018-10-02T08:05:32.057Z,87.20
2018-10-02T08:07:03.728Z,80.90
2018-10-02T08:08:35.227Z,83.90
2018-10-02T08:10:06.784Z,93.80
2018-10-02T08:11:38.416Z,93.40
2018-10-02T08:13:09.912Z,89.40
2018-10-02T08:14:41.545Z,82.90
2018-10-02T08:16:13.067Z,84.30
2018-10-02T08:17:44.878Z,92.00
2018-10-02T08:19:16.555Z,94.10
2018-10-02T08:20:47.780Z,103.50
2018-10-02T08:22:19.342Z,90.50
2018-10-02T08:23:50.982Z,93.60
2018-10-02T08:25:22.584Z,95.90
2018-10-02T08:26:54.131Z,84.40
2018-10-02T08:28:25.628Z,83.00
2018-10-02T08:29:57.369Z,89.70
2018-10-02T08:31:28.799Z,95.00
2018-10-02T08:33:00.401Z,101.50
2018-10-02T08:34:31.913Z,88.70
2018-10-02T08:36:03.658Z,75.60
2018-10-02T08:37:35.260Z,77.70
2018-10-02T08:39:06.737Z,81.60
2018-10-02T08:40:38.200Z,85.20
2018-10-02T08:42:09.771Z,82.80
2018-10-02T08:43:41.476Z,88.40
2018-10-02T08:46:44.496Z,82.40
2018-10-02T08:48:16.146Z,84.50
2018-10-02T08:49:47.653Z,70.80
2018-10-02T08:51:19.204Z,79.70
2018-10-02T08:52:51.080Z,76.20
2018-10-02T08:54:22.347Z,70.50
2018-10-02T08:55:54.049Z,68.10
2018-10-02T08:57:25.883Z,64.30
2018-10-02T08:58:57.109Z,63.40
2018-10-02T09:00:28.650Z,56.90
2018-10-02T09:02:01.130Z,46.40
2018-10-02T09:03:31.793Z,53.60
2018-10-02T09:05:03.485Z,48.00
2018-10-02T09:08:06.628Z,46.10
2018-10-02T09:09:38.319Z,54.40
2018-10-02T09:11:09.643Z,47.80
2018-10-02T09:12:41.620Z,50.00
2018-10-02T09:14:13.124Z,52.40
2018-10-02T09:15:44.772Z,50.70
2018-10-02T09:18:47.521Z,46.90
2018-10-02T09:20:19.117Z,44.50
2018-10-02T09:21:50.753Z,36.40
2018-10-02T09:23:22.323Z,36.20
2018-10-02T09:24:54.067Z,36.50
2018-10-02T09:26:25.373Z,34.00
2018-10-02T09:27:56.986Z,34.80
2018-10-02T09:29:28.522Z,36.40
2018-10-02T09:31:01.043Z,35.40
2018-10-02T09:32:31.773Z,31.90
2018-10-02T09:34:03.306Z,39.30
2018-10-02T09:35:35.025Z,35.20
2018-10-02T09:37:06.475Z,34.30
2018-10-02T09:38:38.074Z,33.90
2018-10-02T09:40:09.547Z,37.60
2018-10-02T09:43:12.699Z,37.10
2018-10-02T09:44:44.476Z,36.20
2018-10-02T09:46:15.847Z,35.70
2018-10-02T09:47:47.626Z,34.70
2018-10-02T09:49:19.201Z,35.20
2018-10-02T09:52:22.248Z,30.70
2018-10-02T09:55:25.821Z,31.30
2018-10-02T09:56:57.230Z,35.60
2018-10-02T10:00:00.028Z,31.10
2018-10-02T10:01:31.868Z,30.20
2018-10-02T10:03:03.257Z,28.70
2018-10-02T10:04:34.755Z,30.00
2018-10-02T10:06:06.384Z,27.00
2018-10-02T10:07:38.040Z,27.20
2018-10-02T10:09:09.482Z,29.20
2018-10-02T10:10:41.303Z,27.70
2018-10-02T10:12:13.094Z,30.10
2018-10-02T10:15:15.839Z,27.90
2018-10-02T10:16:47.579Z,24.30
2018-10-02T10:18:19.246Z,25.70
2018-10-02T10:19:50.675Z,28.10
2018-10-02T10:22:53.733Z,29.30
2018-10-02T10:24:25.306Z,27.60
2018-10-02T10:25:57.207Z,27.50
2018-10-02T10:27:28.440Z,27.60
2018-10-02T10:30:32.868Z,29.00
2018-10-02T10:32:03.255Z,24.20
2018-10-02T10:33:34.814Z,26.30
2018-10-02T10:35:06.831Z,24.30
2018-10-02T10:36:38.426Z,23.10
2018-10-02T10:38:10.075Z,22.00
2018-10-02T10:39:42.135Z,26.00
2018-10-02T10:41:13.176Z,25.80
2018-10-02T10:42:44.677Z,26.00
2018-10-02T10:44:16.004Z,27.00
2018-10-02T10:45:47.684Z,24.80
2018-10-02T10:48:50.796Z,22.50
2018-10-02T10:50:22.900Z,24.60
2018-10-02T10:51:53.757Z,24.80
2018-10-02T10:53:26.136Z,29.90
2018-10-02T10:54:56.803Z,30.10
2018-10-02T10:56:28.727Z,30.60
2018-10-02T10:58:01.192Z,30.80
2018-10-02T10:59:31.540Z,26.90
2018-10-02T11:02:34.843Z,24.60
2018-10-02T11:07:09.444Z,25.60
2018-10-02T11:08:41.156Z,27.80
2018-10-02T11:11:44.869Z,26.10
2018-10-02T11:13:15.907Z,27.40
2018-10-02T11:14:47.427Z,24.90
2018-10-02T11:16:19.555Z,21.90
2018-10-02T11:17:51.136Z,27.30
2018-10-02T11:19:22.506Z,28.90
2018-10-02T11:20:54.702Z,32.00
2018-10-02T11:22:25.468Z,22.80
2018-10-02T11:23:57.181Z,20.30
2018-10-02T11:25:28.861Z,24.20
2018-10-02T11:27:00.834Z,20.10
2018-10-02T11:28:32.053Z,22.00
2018-10-02T11:30:03.382Z,22.60
2018-10-02T11:31:35.560Z,19.80
2018-10-02T11:33:06.756Z,20.20
2018-10-02T11:34:39.778Z,21.50
2018-10-02T11:36:09.826Z,20.60
2018-10-02T11:37:41.602Z,22.40
2018-10-02T11:39:12.745Z,19.50
2018-10-02T11:40:45.091Z,19.50
2018-10-02T11:42:16.539Z,20.80
2018-10-02T11:43:48.354Z,18.60
2018-10-02T11:45:20.559Z,19.70
2018-10-02T11:46:50.775Z,20.60
2018-10-02T11:48:22.235Z,20.00
2018-10-02T11:49:53.920Z,19.20
2018-10-02T11:51:25.326Z,18.60
2018-10-02T11:52:57.070Z,17.60
2018-10-02T11:54:28.664Z,17.60
2018-10-02T11:56:00.068Z,19.00
2018-10-02T11:59:03.438Z,16.90
2018-10-02T12:00:34.882Z,19.40
2018-10-02T12:02:06.409Z,16.60
2018-10-02T12:03:38.592Z,18.00
2018-10-02T12:06:41.634Z,20.20
2018-10-02T12:08:14.396Z,19.30
2018-10-02T12:09:44.913Z,19.70
2018-10-02T12:11:16.932Z,20.10
2018-10-02T12:12:47.516Z,19.20
2018-10-02T12:14:19.352Z,19.00
2018-10-02T12:15:51.182Z,19.40
2018-10-02T12:17:22.279Z,19.10
2018-10-02T12:18:53.831Z,19.80
2018-10-02T12:21:57.000Z,19.90
2018-10-02T12:23:28.617Z,22.00
2018-10-02T12:26:31.855Z,21.50
2018-10-02T12:28:03.542Z,20.30
2018-10-02T12:29:35.126Z,18.90
2018-10-02T12:31:06.734Z,19.40
2018-10-02T12:32:38.600Z,17.60
2018-10-02T12:34:09.680Z,20.00
2018-10-02T12:35:41.305Z,20.90
2018-10-02T12:37:12.849Z,19.10
2018-10-02T12:38:44.737Z,20.40
2018-10-02T12:40:16.020Z,18.70
2018-10-02T12:41:47.909Z,21.70
2018-10-02T12:44:50.876Z,21.80
2018-10-02T12:46:22.364Z,19.40
2018-10-02T12:49:26.459Z,18.10
2018-10-02T12:50:57.118Z,19.70
2018-10-02T12:52:28.805Z,20.10
2018-10-02T12:57:03.461Z,18.00
2018-10-02T12:58:35.047Z,18.20
2018-10-02T13:00:06.634Z,17.50
2018-10-02T13:01:38.222Z,21.60
2018-10-02T13:03:10.213Z,18.30
2018-10-02T13:04:41.393Z,18.60
2018-10-02T13:06:13.285Z,16.90
2018-10-02T13:09:16.183Z,18.00
2018-10-02T13:10:48.348Z,16.90
2018-10-02T13:12:19.349Z,17.90
2018-10-02T13:13:50.915Z,18.00
2018-10-02T13:15:22.809Z,17.30
2018-10-02T13:16:54.368Z,18.40
2018-10-02T13:18:25.674Z,20.00
2018-10-02T13:19:57.310Z,19.20
2018-10-02T13:24:32.176Z,18.60
2018-10-02T13:26:03.611Z,20.20
2018-10-02T13:29:06.796Z,20.80
2018-10-02T13:30:38.983Z,18.00
2018-10-02T13:32:09.970Z,20.50
2018-10-02T13:33:41.646Z,18.40
2018-10-02T13:35:13.135Z,17.80
2018-10-02T13:36:44.724Z,18.40
2018-10-02T13:39:47.940Z,13.20
2018-10-02T13:41:19.488Z,14.00
2018-10-02T13:42:51.381Z,11.30
2018-10-02T13:44:22.677Z,9.60
2018-10-02T13:50:29.242Z,7.00
2018-10-02T13:52:00.601Z,7.30
2018-10-02T13:53:32.191Z,7.80
2018-10-02T13:55:03.775Z,7.20
2018-10-02T13:58:07.050Z,9.10
2018-10-02T14:01:10.392Z,10.80
2018-10-02T14:04:13.438Z,10.90
2018-10-02T14:05:44.887Z,10.10
2018-10-02T14:07:16.476Z,9.10
2018-10-02T14:08:48.061Z,9.00
2018-10-02T14:13:23.084Z,9.80
2018-10-02T14:16:26.003Z,10.60
2018-10-02T14:17:57.590Z,11.70
2018-10-02T14:19:29.234Z,13.10
2018-10-02T14:21:01.074Z,11.20
2018-10-02T14:22:33.107Z,9.60
2018-10-02T14:24:04.250Z,8.60
2018-10-02T14:25:35.639Z,7.60
2018-10-02T14:27:07.411Z,7.30
2018-10-02T14:28:39.215Z,8.40
2018-10-02T14:30:11.218Z,7.90
2018-10-02T14:31:42.358Z,8.00
2018-10-02T14:33:14.238Z,8.70
2018-10-02T14:34:45.993Z,7.10
2018-10-02T14:36:16.982Z,7.30
2018-10-02T14:37:48.469Z,6.20
2018-10-02T14:39:20.340Z,6.90
2018-10-02T14:40:51.953Z,6.50
2018-10-02T14:42:23.416Z,5.70
2018-10-02T14:43:56.389Z,7.10
2018-10-02T14:45:27.796Z,6.90
2018-10-02T14:46:58.014Z,4.60
2018-10-02T14:48:29.416Z,4.30
2018-10-02T14:50:01.143Z,3.30
2018-10-02T14:53:05.102Z,2.60
2018-10-02T14:54:36.318Z,2.70
2018-10-02T14:56:07.902Z,2.70
2018-10-02T14:57:40.488Z,4.80
2018-10-02T14:59:11.790Z,5.70
2018-10-02T15:00:42.545Z,5.50
2018-10-02T15:02:13.937Z,4.80
2018-10-02T15:03:46.303Z,4.50
2018-10-02T15:05:17.550Z,4.60
2018-10-02T15:06:48.746Z,5.70
2018-10-02T15:08:21.159Z,5.80
2018-10-02T15:09:52.884Z,4.70
2018-10-02T15:11:23.977Z,4.70
2018-10-02T15:12:55.013Z,6.90
2018-10-02T15:14:26.891Z,5.70
2018-10-02T15:15:58.162Z,5.70
2018-10-02T15:17:29.626Z,5.50
2018-10-02T15:19:01.286Z,6.70
2018-10-02T15:20:32.780Z,6.50
2018-10-02T15:22:04.889Z,6.40
2018-10-02T15:25:07.544Z,6.40
2018-10-02T15:26:39.432Z,5.80
2018-10-02T15:28:11.222Z,7.30
2018-10-02T15:32:45.680Z,7.30
2018-10-02T15:34:17.670Z,7.50
2018-10-02T15:35:48.650Z,7.10
2018-10-02T15:37:20.564Z,6.50
2018-10-02T15:40:23.721Z,5.70
2018-10-02T15:43:26.800Z,5.80
2018-10-02T15:44:58.192Z,5.80
2018-10-02T15:46:30.183Z,5.70
2018-10-02T15:49:32.962Z,6.00
2018-10-02T15:51:04.603Z,5.60
2018-10-02T15:52:36.248Z,6.50
2018-10-02T15:54:07.777Z,5.50
2018-10-02T15:55:39.330Z,5.00
2018-10-02T15:57:11.228Z,4.90
2018-10-02T15:58:42.518Z,5.60
2018-10-02T16:00:15.239Z,5.30
2018-10-02T16:01:46.005Z,4.40
2018-10-02T16:03:17.297Z,4.80
2018-10-02T16:04:49.042Z,4.90
2018-10-02T16:06:21.008Z,5.40
2018-10-02T16:07:52.074Z,5.40
2018-10-02T16:09:24.189Z,5.00
2018-10-02T16:10:55.260Z,5.30
2018-10-02T16:12:27.162Z,5.70
2018-10-02T16:13:58.904Z,5.90
2018-10-02T16:17:01.638Z,5.60
2018-10-02T16:18:34.150Z,5.90
2018-10-02T16:20:05.267Z,5.40
2018-10-02T16:21:36.411Z,5.40
2018-10-02T16:23:08.305Z,5.30
2018-10-02T16:24:42.873Z,5.70
2018-10-02T16:27:42.994Z,5.20
2018-10-02T16:29:14.363Z,5.40
2018-10-02T16:30:46.218Z,5.60
2018-10-02T16:32:17.874Z,5.30
2018-10-02T16:33:50.663Z,5.00
2018-10-02T16:36:52.307Z,4.60
2018-10-02T16:46:02.037Z,4.90
2018-10-02T16:47:33.414Z,5.50
2018-10-02T16:49:05.371Z,5.10
2018-10-02T16:50:37.502Z,5.00
2018-10-02T16:52:08.161Z,5.20
2018-10-02T16:53:40.049Z,5.20
2018-10-02T16:55:11.581Z,5.10
2018-10-02T16:56:43.118Z,5.30
2018-10-02T16:58:14.499Z,6.10
2018-10-02T16:59:46.997Z,6.50
2018-10-02T17:01:17.667Z,7.10
2018-10-02T17:02:49.699Z,7.10
2018-10-02T17:04:22.167Z,6.70
2018-10-02T17:05:52.669Z,6.70
2018-10-02T17:10:28.122Z,6.70
2018-10-02T17:11:59.201Z,6.40
2018-10-02T17:13:31.322Z,6.30
2018-10-02T17:16:33.564Z,6.70
2018-10-02T17:18:05.131Z,5.50
2018-10-02T17:19:36.947Z,5.90
2018-10-02T17:21:10.195Z,5.60
2018-10-02T17:22:40.589Z,4.40
2018-10-02T17:24:12.280Z,5.10
2018-10-02T17:25:44.122Z,4.40
2018-10-02T17:27:14.691Z,4.10
2018-10-02T17:28:46.635Z,5.00
2018-10-02T17:30:17.808Z,4.80
2018-10-02T17:31:50.054Z,4.40
2018-10-02T17:33:20.973Z,4.70
2018-10-02T17:34:52.673Z,5.10
2018-10-02T17:36:24.350Z,9.10
2018-10-02T17:37:55.986Z,12.50
2018-10-02T17:39:27.514Z,12.90
2018-10-02T17:40:59.481Z,14.90
2018-10-02T17:42:30.477Z,17.20
2018-10-02T17:45:33.845Z,18.50
2018-10-02T17:48:36.839Z,17.40
2018-10-02T17:50:08.783Z,15.80
2018-10-02T17:51:40.271Z,13.80
2018-10-02T17:53:11.579Z,16.20
2018-10-02T17:54:43.232Z,15.60
2018-10-02T17:56:15.762Z,15.60
2018-10-02T17:57:46.292Z,15.60
2018-10-02T17:59:18.272Z,13.30
2018-10-02T18:00:49.790Z,13.50
2018-10-02T18:03:52.793Z,12.60
2018-10-02T18:05:24.579Z,12.00
2018-10-02T18:06:55.810Z,12.40
2018-10-02T18:08:27.384Z,11.40
2018-10-02T18:09:59.263Z,12.60
2018-10-02T18:11:30.705Z,12.50
2018-10-02T18:13:02.447Z,12.50
2018-10-02T18:14:33.933Z,12.70
2018-10-02T18:16:05.371Z,13.40
2018-10-02T18:17:37.044Z,12.10
2018-10-02T18:19:09.682Z,11.70
2018-10-02T18:20:40.390Z,12.10
2018-10-02T18:22:12.025Z,12.70
2018-10-02T18:23:44.602Z,12.90
2018-10-02T18:25:15.983Z,14.10
2018-10-02T18:29:50.181Z,13.30
2018-10-02T18:31:21.650Z,13.30
2018-10-02T18:34:25.273Z,15.00
2018-10-02T18:35:56.011Z,15.00
2018-10-02T18:37:27.987Z,16.70
2018-10-02T18:38:59.290Z,16.40
2018-10-02T18:40:31.524Z,15.00
2018-10-02T18:42:02.806Z,17.20
2018-10-02T18:43:34.151Z,16.60
2018-10-02T18:45:05.405Z,17.10
2018-10-02T18:46:37.470Z,17.50
2018-10-02T18:48:10.195Z,18.00
2018-10-02T18:49:40.954Z,18.80
2018-10-02T18:51:12.051Z,19.70
2018-10-02T18:52:44.527Z,19.30
2018-10-02T18:54:15.909Z,19.80
2018-10-02T18:55:47.407Z,20.60
2018-10-02T18:57:18.165Z,20.20
2018-10-02T18:58:50.397Z,22.00
2018-10-02T19:00:21.353Z,20.80
2018-10-02T19:01:52.992Z,23.10
2018-10-02T19:03:24.509Z,24.10
2018-10-02T19:04:55.991Z,24.20
2018-10-02T19:06:27.780Z,26.70
2018-10-02T19:07:59.163Z,27.50
2018-10-02T19:09:30.740Z,24.80
2018-10-02T19:11:02.626Z,28.90
2018-10-02T19:14:05.777Z,28.00
2018-10-02T19:15:37.069Z,26.20
2018-10-02T19:20:12.137Z,30.50
2018-10-02T19:21:43.401Z,29.20
2018-10-02T19:23:15.185Z,30.60
2018-10-02T19:24:46.620Z,31.50
2018-10-02T19:27:49.728Z,30.90
2018-10-02T19:30:52.896Z,34.30
2018-10-02T19:33:56.219Z,35.20
2018-10-02T19:36:59.419Z,37.10
2018-10-02T19:38:30.797Z,36.90
2018-10-02T19:40:02.377Z,34.20
2018-10-02T19:41:33.959Z,36.90
2018-10-02T19:43:05.538Z,39.50
2018-10-02T19:44:37.120Z,34.90
2018-10-02T19:46:09.002Z,34.10
2018-10-02T19:47:40.800Z,36.80
2018-10-02T19:49:11.859Z,38.30
2018-10-02T19:52:15.641Z,38.30
2018-10-02T19:53:46.619Z,37.70
2018-10-02T19:56:50.056Z,42.90
2018-10-02T19:58:21.333Z,43.50
2018-10-02T19:59:52.959Z,42.10
2018-10-02T20:01:24.490Z,46.20
2018-10-02T20:02:56.066Z,47.80
2018-10-02T20:04:27.645Z,45.30
2018-10-02T20:05:59.458Z,43.00
2018-10-02T20:07:31.423Z,41.90
2018-10-02T20:09:02.581Z,46.20
2018-10-02T20:10:34.086Z,44.40
2018-10-02T20:12:05.535Z,46.80
2018-10-02T20:16:40.378Z,47.00
2018-10-02T20:18:12.149Z,46.30
2018-10-02T20:19:43.424Z,48.70
2018-10-02T20:21:15.005Z,44.90
2018-10-02T20:22:46.578Z,44.10
2018-10-02T20:25:49.734Z,44.90
2018-10-02T20:27:21.445Z,45.80
2018-10-02T20:28:52.987Z,42.70
2018-10-02T20:30:24.781Z,40.30
2018-10-02T20:31:56.043Z,42.00
2018-10-02T20:33:27.622Z,44.50
2018-10-02T20:34:59.398Z,44.60
2018-10-02T20:36:30.807Z,43.20
2018-10-02T20:39:33.926Z,44.90
2018-10-02T20:41:05.502Z,44.80
2018-10-02T20:42:37.084Z,41.70
2018-10-02T20:45:40.435Z,43.50
2018-10-02T20:47:12.532Z,38.20
2018-10-02T20:48:43.385Z,44.20
2018-10-02T20:50:14.963Z,39.20
2018-10-02T20:51:46.538Z,41.30
2018-10-02T20:53:18.114Z,37.70
2018-10-02T20:54:49.696Z,36.80
2018-10-02T20:56:21.266Z,38.00
2018-10-02T20:57:52.842Z,39.30
2018-10-02T20:59:24.419Z,37.60
2018-10-02T21:00:56.298Z,38.80
2018-10-02T21:02:27.570Z,39.80
2018-10-02T21:03:59.146Z,34.70
2018-10-02T21:05:30.898Z,35.70
2018-10-02T21:07:02.332Z,36.80
2018-10-02T21:08:34.424Z,40.60
2018-10-02T21:10:05.455Z,35.80
2018-10-02T21:11:37.027Z,37.50
2018-10-02T21:13:08.602Z,38.00
2018-10-02T21:14:40.178Z,35.90
2018-10-02T21:16:11.758Z,33.60
2018-10-02T21:17:43.337Z,37.30
2018-10-02T21:19:14.909Z,32.80
2018-10-02T21:20:46.482Z,34.40
2018-10-02T21:22:18.058Z,33.40
2018-10-02T21:25:21.311Z,35.00
2018-10-02T21:26:52.786Z,36.40
2018-10-02T21:28:24.362Z,36.90
2018-10-02T21:29:55.939Z,33.30
2018-10-02T21:31:27.536Z,34.30
2018-10-02T21:32:59.090Z,31.00
2018-10-02T21:34:30.721Z,36.20
2018-10-02T21:36:02.244Z,35.20
2018-10-02T21:37:33.820Z,29.90
2018-10-02T21:39:05.396Z,32.40
2018-10-02T21:40:36.971Z,31.20
2018-10-02T21:42:08.551Z,33.00
2018-10-02T21:43:40.225Z,33.00
2018-10-02T21:45:11.699Z,31.60
2018-10-02T21:46:43.309Z,31.30
2018-10-02T21:48:14.860Z,29.10
2018-10-02T21:49:46.531Z,27.00